sensor_id;sensor_type;location;lat;lon;timestamp;P1;durP1;ratioP1;P2;durP2;ratioP2
21505;SDS011;10914;48.886;9.394;2023-10-31T00:00:17;78.70;;;74.88;;
21505;SDS011;10914;48.886;9.394;2023-10-31T00:02:42;47.38;;;45.08;;
21505;SDS011;10914;48.886;9.394;2023-10-31T00:05:07;31.53;;;29.97;;
21505;SDS011;10914;48.886;9.394;2023-10-31T00:07:33;32.80;;;31.30;;
21505;SDS011;10914;48.886;9.394;2023-10-31T00:09:58;63.60;;;60.58;;
21505;SDS011;10914;48.886;9.394;2023-10-31T00:12:23;38.30;;;36.27;;
21505;SDS011;10914;48.886;9.394;2023-10-31T00:14:48;33.10;;;31.60;;
21505;SDS011;10914;48.886;9.394;2023-10-31T00:17:14;48.87;;;46.47;;
21505;SDS011;10914;48.886;9.394;2023-10-31T00:19:39;54.20;;;51.60;;
21505;SDS011;10914;48.886;9.394;2023-10-31T00:22:04;31.27;;;29.88;;
21505;SDS011;10914;48.886;9.394;2023-10-31T00:24:30;59.63;;;56.95;;
21505;SDS011;10914;48.886;9.394;2023-10-31T00:26:56;45.10;;;43.08;;
21505;SDS011;10914;48.886;9.394;2023-10-31T00:29:22;59.17;;;56.37;;
21505;SDS011;10914;48.886;9.394;2023-10-31T00:31:47;48.23;;;45.83;;
21505;SDS011;10914;48.886;9.394;2023-10-31T00:34:12;31.17;;;29.75;;
21505;SDS011;10914;48.886;9.394;2023-10-31T00:36:37;30.58;;;29.17;;
21505;SDS011;10914;48.886;9.394;2023-10-31T00:39:03;31.65;;;30.15;;
21505;SDS011;10914;48.886;9.394;2023-10-31T00:41:28;24.87;;;23.57;;
21505;SDS011;10914;48.886;9.394;2023-10-31T00:43:53;34.47;;;32.70;;
21505;SDS011;10914;48.886;9.394;2023-10-31T00:46:18;33.50;;;32.00;;
21505;SDS011;10914;48.886;9.394;2023-10-31T00:48:44;27.33;;;25.97;;
21505;SDS011;10914;48.886;9.394;2023-10-31T00:51:09;29.88;;;28.45;;
21505;SDS011;10914;48.886;9.394;2023-10-31T00:53:37;28.33;;;26.90;;
21505;SDS011;10914;48.886;9.394;2023-10-31T00:56:02;35.93;;;34.33;;
21505;SDS011;10914;48.886;9.394;2023-10-31T00:58:28;29.55;;;28.15;;
21505;SDS011;10914;48.886;9.394;2023-10-31T01:00:53;27.25;;;25.60;;
21505;SDS011;10914;48.886;9.394;2023-10-31T01:03:18;31.10;;;29.67;;
21505;SDS011;10914;48.886;9.394;2023-10-31T01:05:43;33.42;;;31.70;;
21505;SDS011;10914;48.886;9.394;2023-10-31T01:08:08;37.20;;;35.53;;
21505;SDS011;10914;48.886;9.394;2023-10-31T01:10:34;70.43;;;67.23;;
21505;SDS011;10914;48.886;9.394;2023-10-31T01:12:59;47.17;;;45.07;;
21505;SDS011;10914;48.886;9.394;2023-10-31T01:15:24;33.38;;;31.83;;
21505;SDS011;10914;48.886;9.394;2023-10-31T01:17:49;24.60;;;23.50;;
21505;SDS011;10914;48.886;9.394;2023-10-31T01:20:14;24.03;;;22.73;;
21505;SDS011;10914;48.886;9.394;2023-10-31T01:22:39;24.17;;;23.03;;
21505;SDS011;10914;48.886;9.394;2023-10-31T01:25:05;29.10;;;27.65;;
21505;SDS011;10914;48.886;9.394;2023-10-31T01:27:30;24.92;;;23.83;;
21505;SDS011;10914;48.886;9.394;2023-10-31T01:29:55;24.60;;;23.23;;
21505;SDS011;10914;48.886;9.394;2023-10-31T01:32:20;25.38;;;24.17;;
21505;SDS011;10914;48.886;9.394;2023-10-31T01:34:46;27.75;;;26.30;;
21505;SDS011;10914;48.886;9.394;2023-10-31T01:37:11;24.13;;;22.83;;
21505;SDS011;10914;48.886;9.394;2023-10-31T01:39:36;24.73;;;23.52;;
21505;SDS011;10914;48.886;9.394;2023-10-31T01:42:01;23.90;;;22.80;;
21505;SDS011;10914;48.886;9.394;2023-10-31T01:44:27;23.88;;;22.88;;
21505;SDS011;10914;48.886;9.394;2023-10-31T01:46:52;25.70;;;24.40;;
21505;SDS011;10914;48.886;9.394;2023-10-31T01:49:17;25.40;;;24.13;;
21505;SDS011;10914;48.886;9.394;2023-10-31T01:51:42;26.00;;;24.80;;
21505;SDS011;10914;48.886;9.394;2023-10-31T01:54:09;28.60;;;27.30;;
21505;SDS011;10914;48.886;9.394;2023-10-31T01:56:35;26.65;;;25.35;;
21505;SDS011;10914;48.886;9.394;2023-10-31T01:59:00;25.73;;;24.33;;
21505;SDS011;10914;48.886;9.394;2023-10-31T02:01:26;26.50;;;25.20;;
21505;SDS011;10914;48.886;9.394;2023-10-31T02:03:51;27.08;;;25.75;;
21505;SDS011;10914;48.886;9.394;2023-10-31T02:06:16;26.83;;;25.52;;
21505;SDS011;10914;48.886;9.394;2023-10-31T02:08:41;27.10;;;25.75;;
21505;SDS011;10914;48.886;9.394;2023-10-31T02:11:06;26.27;;;25.08;;
21505;SDS011;10914;48.886;9.394;2023-10-31T02:13:34;26.55;;;25.25;;
21505;SDS011;10914;48.886;9.394;2023-10-31T02:16:00;26.77;;;24.95;;
21505;SDS011;10914;48.886;9.394;2023-10-31T02:18:25;33.23;;;31.60;;
21505;SDS011;10914;48.886;9.394;2023-10-31T02:20:50;34.00;;;32.27;;
21505;SDS011;10914;48.886;9.394;2023-10-31T02:23:16;35.35;;;33.75;;
21505;SDS011;10914;48.886;9.394;2023-10-31T02:25:41;34.65;;;33.05;;
21505;SDS011;10914;48.886;9.394;2023-10-31T02:28:06;26.73;;;25.53;;
21505;SDS011;10914;48.886;9.394;2023-10-31T02:30:31;27.50;;;26.23;;
21505;SDS011;10914;48.886;9.394;2023-10-31T02:32:57;28.10;;;26.42;;
21505;SDS011;10914;48.886;9.394;2023-10-31T02:35:22;28.57;;;26.87;;
21505;SDS011;10914;48.886;9.394;2023-10-31T02:37:47;26.33;;;25.08;;
21505;SDS011;10914;48.886;9.394;2023-10-31T02:40:12;26.48;;;25.13;;
21505;SDS011;10914;48.886;9.394;2023-10-31T02:42:38;25.77;;;24.63;;
21505;SDS011;10914;48.886;9.394;2023-10-31T02:45:03;26.90;;;25.60;;
21505;SDS011;10914;48.886;9.394;2023-10-31T02:47:28;25.33;;;24.13;;
21505;SDS011;10914;48.886;9.394;2023-10-31T02:49:53;24.45;;;23.35;;
21505;SDS011;10914;48.886;9.394;2023-10-31T02:52:18;28.27;;;26.92;;
21505;SDS011;10914;48.886;9.394;2023-10-31T02:54:43;27.85;;;26.63;;
21505;SDS011;10914;48.886;9.394;2023-10-31T02:57:09;28.33;;;27.00;;
21505;SDS011;10914;48.886;9.394;2023-10-31T02:59:34;27.80;;;26.30;;
21505;SDS011;10914;48.886;9.394;2023-10-31T03:01:59;26.50;;;25.20;;
21505;SDS011;10914;48.886;9.394;2023-10-31T03:04:24;24.58;;;23.27;;
21505;SDS011;10914;48.886;9.394;2023-10-31T03:06:49;24.50;;;23.40;;
21505;SDS011;10914;48.886;9.394;2023-10-31T03:09:15;22.95;;;21.65;;
21505;SDS011;10914;48.886;9.394;2023-10-31T03:11:40;23.13;;;21.90;;
21505;SDS011;10914;48.886;9.394;2023-10-31T03:14:05;22.83;;;21.73;;
21505;SDS011;10914;48.886;9.394;2023-10-31T03:16:31;24.40;;;23.05;;
21505;SDS011;10914;48.886;9.394;2023-10-31T03:18:56;29.83;;;28.20;;
21505;SDS011;10914;48.886;9.394;2023-10-31T03:21:21;27.30;;;25.73;;
21505;SDS011;10914;48.886;9.394;2023-10-31T03:23:46;24.93;;;23.63;;
21505;SDS011;10914;48.886;9.394;2023-10-31T03:26:12;24.00;;;22.80;;
21505;SDS011;10914;48.886;9.394;2023-10-31T03:28:37;27.17;;;25.67;;
21505;SDS011;10914;48.886;9.394;2023-10-31T03:31:04;25.13;;;23.90;;
21505;SDS011;10914;48.886;9.394;2023-10-31T03:33:29;24.38;;;23.25;;
21505;SDS011;10914;48.886;9.394;2023-10-31T03:35:54;24.53;;;23.20;;
21505;SDS011;10914;48.886;9.394;2023-10-31T03:38:19;26.30;;;24.98;;
21505;SDS011;10914;48.886;9.394;2023-10-31T03:40:45;23.15;;;22.10;;
21505;SDS011;10914;48.886;9.394;2023-10-31T03:43:10;25.05;;;23.73;;
21505;SDS011;10914;48.886;9.394;2023-10-31T03:45:35;25.00;;;23.80;;
21505;SDS011;10914;48.886;9.394;2023-10-31T03:48:00;27.63;;;26.33;;
21505;SDS011;10914;48.886;9.394;2023-10-31T03:50:25;27.33;;;26.03;;
21505;SDS011;10914;48.886;9.394;2023-10-31T03:52:51;22.50;;;21.30;;
21505;SDS011;10914;48.886;9.394;2023-10-31T03:55:16;24.63;;;23.37;;
21505;SDS011;10914;48.886;9.394;2023-10-31T03:57:42;23.67;;;22.67;;
21505;SDS011;10914;48.886;9.394;2023-10-31T04:00:07;26.13;;;24.77;;
21505;SDS011;10914;48.886;9.394;2023-10-31T04:02:32;28.40;;;27.10;;
21505;SDS011;10914;48.886;9.394;2023-10-31T04:04:58;24.55;;;23.35;;
21505;SDS011;10914;48.886;9.394;2023-10-31T04:07:23;24.60;;;23.20;;
21505;SDS011;10914;48.886;9.394;2023-10-31T04:09:48;22.83;;;21.67;;
21505;SDS011;10914;48.886;9.394;2023-10-31T04:12:13;24.23;;;23.08;;
21505;SDS011;10914;48.886;9.394;2023-10-31T04:14:38;24.73;;;23.25;;
21505;SDS011;10914;48.886;9.394;2023-10-31T04:17:04;23.52;;;22.42;;
21505;SDS011;10914;48.886;9.394;2023-10-31T04:19:29;23.17;;;21.77;;
21505;SDS011;10914;48.886;9.394;2023-10-31T04:21:54;22.10;;;21.00;;
21505;SDS011;10914;48.886;9.394;2023-10-31T04:24:19;23.83;;;22.65;;
21505;SDS011;10914;48.886;9.394;2023-10-31T04:26:45;26.43;;;25.03;;
21505;SDS011;10914;48.886;9.394;2023-10-31T04:29:10;25.83;;;24.63;;
21505;SDS011;10914;48.886;9.394;2023-10-31T04:31:35;24.37;;;23.10;;
21505;SDS011;10914;48.886;9.394;2023-10-31T04:34:00;25.70;;;23.83;;
21505;SDS011;10914;48.886;9.394;2023-10-31T04:36:25;27.30;;;25.90;;
21505;SDS011;10914;48.886;9.394;2023-10-31T04:38:50;26.30;;;24.90;;
21505;SDS011;10914;48.886;9.394;2023-10-31T04:41:16;36.33;;;34.67;;
21505;SDS011;10914;48.886;9.394;2023-10-31T04:43:41;32.53;;;30.83;;
21505;SDS011;10914;48.886;9.394;2023-10-31T04:46:09;28.95;;;27.60;;
21505;SDS011;10914;48.886;9.394;2023-10-31T04:48:34;33.47;;;31.87;;
21505;SDS011;10914;48.886;9.394;2023-10-31T04:50:59;32.03;;;30.58;;
21505;SDS011;10914;48.886;9.394;2023-10-31T04:53:24;28.42;;;26.88;;
21505;SDS011;10914;48.886;9.394;2023-10-31T04:55:49;30.70;;;29.30;;
21505;SDS011;10914;48.886;9.394;2023-10-31T04:58:15;29.20;;;27.87;;
21505;SDS011;10914;48.886;9.394;2023-10-31T05:00:40;29.53;;;27.93;;
21505;SDS011;10914;48.886;9.394;2023-10-31T05:03:06;31.67;;;30.13;;
21505;SDS011;10914;48.886;9.394;2023-10-31T05:05:31;32.70;;;31.00;;
21505;SDS011;10914;48.886;9.394;2023-10-31T05:07:56;37.08;;;35.25;;
21505;SDS011;10914;48.886;9.394;2023-10-31T05:10:21;34.63;;;32.90;;
21505;SDS011;10914;48.886;9.394;2023-10-31T05:12:48;30.85;;;29.45;;
21505;SDS011;10914;48.886;9.394;2023-10-31T05:15:13;31.05;;;29.50;;
21505;SDS011;10914;48.886;9.394;2023-10-31T05:17:38;30.20;;;28.73;;
21505;SDS011;10914;48.886;9.394;2023-10-31T05:20:03;26.73;;;25.48;;
21505;SDS011;10914;48.886;9.394;2023-10-31T05:22:29;27.88;;;26.58;;
21505;SDS011;10914;48.886;9.394;2023-10-31T05:24:54;28.10;;;26.63;;
21505;SDS011;10914;48.886;9.394;2023-10-31T05:27:20;23.92;;;22.73;;
21505;SDS011;10914;48.886;9.394;2023-10-31T05:29:45;23.63;;;22.52;;
21505;SDS011;10914;48.886;9.394;2023-10-31T05:32:10;23.20;;;22.02;;
21505;SDS011;10914;48.886;9.394;2023-10-31T05:34:35;24.70;;;23.50;;
21505;SDS011;10914;48.886;9.394;2023-10-31T05:37:00;23.83;;;22.63;;
21505;SDS011;10914;48.886;9.394;2023-10-31T05:39:26;27.02;;;25.75;;
21505;SDS011;10914;48.886;9.394;2023-10-31T05:41:51;28.10;;;26.60;;
21505;SDS011;10914;48.886;9.394;2023-10-31T05:44:17;26.05;;;24.75;;
21505;SDS011;10914;48.886;9.394;2023-10-31T05:46:42;27.10;;;25.53;;
21505;SDS011;10914;48.886;9.394;2023-10-31T05:49:07;24.75;;;23.55;;
21505;SDS011;10914;48.886;9.394;2023-10-31T05:51:32;25.23;;;24.02;;
21505;SDS011;10914;48.886;9.394;2023-10-31T05:53:58;26.27;;;24.77;;
21505;SDS011;10914;48.886;9.394;2023-10-31T05:56:23;23.50;;;22.40;;
21505;SDS011;10914;48.886;9.394;2023-10-31T05:58:49;25.40;;;24.10;;
21505;SDS011;10914;48.886;9.394;2023-10-31T06:01:14;25.58;;;24.35;;
21505;SDS011;10914;48.886;9.394;2023-10-31T06:03:43;25.07;;;23.50;;
21505;SDS011;10914;48.886;9.394;2023-10-31T06:06:09;25.15;;;23.85;;
21505;SDS011;10914;48.886;9.394;2023-10-31T06:08:34;23.23;;;22.00;;
21505;SDS011;10914;48.886;9.394;2023-10-31T06:10:59;24.88;;;23.73;;
21505;SDS011;10914;48.886;9.394;2023-10-31T06:13:25;30.30;;;28.80;;
21505;SDS011;10914;48.886;9.394;2023-10-31T06:15:54;29.02;;;27.30;;
21505;SDS011;10914;48.886;9.394;2023-10-31T06:18:20;35.97;;;34.25;;
21505;SDS011;10914;48.886;9.394;2023-10-31T06:20:45;44.47;;;42.23;;
21505;SDS011;10914;48.886;9.394;2023-10-31T06:23:10;27.73;;;26.43;;
21505;SDS011;10914;48.886;9.394;2023-10-31T06:25:35;32.95;;;31.15;;
21505;SDS011;10914;48.886;9.394;2023-10-31T06:28:00;37.63;;;35.55;;
21505;SDS011;10914;48.886;9.394;2023-10-31T06:30:25;29.37;;;27.87;;
21505;SDS011;10914;48.886;9.394;2023-10-31T06:32:51;24.60;;;23.30;;
21505;SDS011;10914;48.886;9.394;2023-10-31T06:35:16;28.67;;;26.92;;
21505;SDS011;10914;48.886;9.394;2023-10-31T06:37:41;25.85;;;24.55;;
21505;SDS011;10914;48.886;9.394;2023-10-31T06:40:07;25.92;;;24.52;;
21505;SDS011;10914;48.886;9.394;2023-10-31T06:42:32;29.30;;;27.55;;
21505;SDS011;10914;48.886;9.394;2023-10-31T06:44:57;28.70;;;27.30;;
21505;SDS011;10914;48.886;9.394;2023-10-31T06:47:22;24.30;;;23.10;;
21505;SDS011;10914;48.886;9.394;2023-10-31T06:49:47;23.27;;;22.17;;
21505;SDS011;10914;48.886;9.394;2023-10-31T06:52:13;24.77;;;23.58;;
21505;SDS011;10914;48.886;9.394;2023-10-31T06:54:38;24.40;;;23.20;;
21505;SDS011;10914;48.886;9.394;2023-10-31T06:57:03;23.52;;;22.42;;
21505;SDS011;10914;48.886;9.394;2023-10-31T06:59:29;24.55;;;23.25;;
21505;SDS011;10914;48.886;9.394;2023-10-31T07:01:54;27.45;;;26.05;;
21505;SDS011;10914;48.886;9.394;2023-10-31T07:04:19;27.15;;;25.77;;
21505;SDS011;10914;48.886;9.394;2023-10-31T07:06:45;23.40;;;22.08;;
21505;SDS011;10914;48.886;9.394;2023-10-31T07:09:10;22.98;;;21.85;;
21505;SDS011;10914;48.886;9.394;2023-10-31T07:11:35;22.33;;;21.33;;
21505;SDS011;10914;48.886;9.394;2023-10-31T07:14:01;22.45;;;21.35;;
21505;SDS011;10914;48.886;9.394;2023-10-31T07:16:27;23.58;;;22.25;;
21505;SDS011;10914;48.886;9.394;2023-10-31T07:18:52;24.20;;;22.98;;
21505;SDS011;10914;48.886;9.394;2023-10-31T07:21:17;24.02;;;22.85;;
21505;SDS011;10914;48.886;9.394;2023-10-31T07:23:42;24.10;;;22.90;;
21505;SDS011;10914;48.886;9.394;2023-10-31T07:26:09;24.52;;;23.00;;
21505;SDS011;10914;48.886;9.394;2023-10-31T07:28:34;23.88;;;22.63;;
21505;SDS011;10914;48.886;9.394;2023-10-31T07:30:59;25.07;;;23.87;;
21505;SDS011;10914;48.886;9.394;2023-10-31T07:33:25;25.53;;;24.13;;
21505;SDS011;10914;48.886;9.394;2023-10-31T07:35:50;24.63;;;23.52;;
21505;SDS011;10914;48.886;9.394;2023-10-31T07:38:15;26.33;;;24.93;;
21505;SDS011;10914;48.886;9.394;2023-10-31T07:40:40;29.10;;;27.23;;
21505;SDS011;10914;48.886;9.394;2023-10-31T07:43:05;25.37;;;24.13;;
21505;SDS011;10914;48.886;9.394;2023-10-31T07:45:30;25.73;;;24.53;;
21505;SDS011;10914;48.886;9.394;2023-10-31T07:47:55;25.37;;;24.17;;
21505;SDS011;10914;48.886;9.394;2023-10-31T07:50:21;24.90;;;23.77;;
21505;SDS011;10914;48.886;9.394;2023-10-31T07:52:46;25.20;;;24.02;;
21505;SDS011;10914;48.886;9.394;2023-10-31T07:55:12;25.25;;;24.02;;
21505;SDS011;10914;48.886;9.394;2023-10-31T07:57:37;25.63;;;24.13;;
21505;SDS011;10914;48.886;9.394;2023-10-31T08:00:03;25.77;;;24.37;;
21505;SDS011;10914;48.886;9.394;2023-10-31T08:02:28;25.98;;;24.58;;
21505;SDS011;10914;48.886;9.394;2023-10-31T08:04:53;25.80;;;24.50;;
21505;SDS011;10914;48.886;9.394;2023-10-31T08:07:18;25.43;;;24.23;;
21505;SDS011;10914;48.886;9.394;2023-10-31T08:09:44;25.13;;;23.90;;
21505;SDS011;10914;48.886;9.394;2023-10-31T08:12:09;25.33;;;24.13;;
21505;SDS011;10914;48.886;9.394;2023-10-31T08:14:35;24.95;;;23.55;;
21505;SDS011;10914;48.886;9.394;2023-10-31T08:17:00;23.85;;;22.50;;
21505;SDS011;10914;48.886;9.394;2023-10-31T08:19:25;23.33;;;22.13;;
21505;SDS011;10914;48.886;9.394;2023-10-31T08:21:50;23.63;;;22.48;;
21505;SDS011;10914;48.886;9.394;2023-10-31T08:24:15;23.63;;;22.30;;
21505;SDS011;10914;48.886;9.394;2023-10-31T08:26:40;24.00;;;22.70;;
21505;SDS011;10914;48.886;9.394;2023-10-31T08:29:06;35.20;;;32.33;;
21505;SDS011;10914;48.886;9.394;2023-10-31T08:31:31;29.83;;;27.77;;
21505;SDS011;10914;48.886;9.394;2023-10-31T08:33:56;27.58;;;25.80;;
21505;SDS011;10914;48.886;9.394;2023-10-31T08:36:21;26.60;;;25.10;;
21505;SDS011;10914;48.886;9.394;2023-10-31T08:38:46;25.05;;;23.75;;
21505;SDS011;10914;48.886;9.394;2023-10-31T08:41:11;25.07;;;23.67;;
21505;SDS011;10914;48.886;9.394;2023-10-31T08:43:37;23.50;;;22.23;;
21505;SDS011;10914;48.886;9.394;2023-10-31T08:46:02;23.27;;;22.05;;
21505;SDS011;10914;48.886;9.394;2023-10-31T08:48:27;23.10;;;21.70;;
21505;SDS011;10914;48.886;9.394;2023-10-31T08:50:52;24.10;;;22.90;;
21505;SDS011;10914;48.886;9.394;2023-10-31T08:53:18;23.27;;;21.97;;
21505;SDS011;10914;48.886;9.394;2023-10-31T08:55:44;22.55;;;21.42;;
21505;SDS011;10914;48.886;9.394;2023-10-31T08:58:12;21.77;;;20.70;;
21505;SDS011;10914;48.886;9.394;2023-10-31T09:00:42;23.30;;;22.00;;
21505;SDS011;10914;48.886;9.394;2023-10-31T09:03:07;22.27;;;21.17;;
21505;SDS011;10914;48.886;9.394;2023-10-31T09:05:33;23.00;;;21.90;;
21505;SDS011;10914;48.886;9.394;2023-10-31T09:07:58;23.88;;;22.63;;
21505;SDS011;10914;48.886;9.394;2023-10-31T09:10:23;21.70;;;20.60;;
21505;SDS011;10914;48.886;9.394;2023-10-31T09:12:48;21.77;;;20.57;;
21505;SDS011;10914;48.886;9.394;2023-10-31T09:15:13;21.60;;;20.58;;
21505;SDS011;10914;48.886;9.394;2023-10-31T09:17:38;21.67;;;20.60;;
21505;SDS011;10914;48.886;9.394;2023-10-31T09:20:04;21.45;;;20.30;;
21505;SDS011;10914;48.886;9.394;2023-10-31T09:22:30;21.80;;;20.70;;
21505;SDS011;10914;48.886;9.394;2023-10-31T09:24:55;21.00;;;19.90;;
21505;SDS011;10914;48.886;9.394;2023-10-31T09:27:20;21.70;;;20.50;;
21505;SDS011;10914;48.886;9.394;2023-10-31T09:29:45;21.13;;;19.83;;
21505;SDS011;10914;48.886;9.394;2023-10-31T09:32:10;21.67;;;20.37;;
21505;SDS011;10914;48.886;9.394;2023-10-31T09:34:35;22.63;;;21.17;;
21505;SDS011;10914;48.886;9.394;2023-10-31T09:37:01;22.17;;;20.97;;
21505;SDS011;10914;48.886;9.394;2023-10-31T09:39:26;21.57;;;20.53;;
21505;SDS011;10914;48.886;9.394;2023-10-31T09:41:52;20.90;;;19.80;;
21505;SDS011;10914;48.886;9.394;2023-10-31T09:44:18;20.90;;;19.83;;
21505;SDS011;10914;48.886;9.394;2023-10-31T09:46:43;22.65;;;21.30;;
21505;SDS011;10914;48.886;9.394;2023-10-31T09:49:08;21.02;;;19.92;;
21505;SDS011;10914;48.886;9.394;2023-10-31T09:51:35;21.27;;;20.17;;
21505;SDS011;10914;48.886;9.394;2023-10-31T09:54:02;21.50;;;20.40;;
21505;SDS011;10914;48.886;9.394;2023-10-31T09:56:28;22.55;;;21.38;;
21505;SDS011;10914;48.886;9.394;2023-10-31T09:58:59;21.40;;;20.30;;
21505;SDS011;10914;48.886;9.394;2023-10-31T10:01:25;21.85;;;20.65;;
21505;SDS011;10914;48.886;9.394;2023-10-31T10:03:50;20.80;;;19.80;;
21505;SDS011;10914;48.886;9.394;2023-10-31T10:06:15;21.70;;;20.57;;
21505;SDS011;10914;48.886;9.394;2023-10-31T10:08:40;21.05;;;19.83;;
21505;SDS011;10914;48.886;9.394;2023-10-31T10:11:06;21.05;;;19.95;;
21505;SDS011;10914;48.886;9.394;2023-10-31T10:13:31;21.30;;;20.05;;
21505;SDS011;10914;48.886;9.394;2023-10-31T10:15:56;21.67;;;20.48;;
21505;SDS011;10914;48.886;9.394;2023-10-31T10:18:25;21.80;;;20.50;;
21505;SDS011;10914;48.886;9.394;2023-10-31T10:21:03;22.48;;;21.27;;
21505;SDS011;10914;48.886;9.394;2023-10-31T10:23:29;20.75;;;19.75;;
21505;SDS011;10914;48.886;9.394;2023-10-31T10:25:55;21.52;;;20.33;;
21505;SDS011;10914;48.886;9.394;2023-10-31T10:28:21;21.52;;;20.33;;
21505;SDS011;10914;48.886;9.394;2023-10-31T10:30:46;21.55;;;20.35;;
21505;SDS011;10914;48.886;9.394;2023-10-31T10:33:12;22.27;;;20.73;;
21505;SDS011;10914;48.886;9.394;2023-10-31T10:35:38;21.42;;;20.38;;
21505;SDS011;10914;48.886;9.394;2023-10-31T10:38:03;22.00;;;20.80;;
21505;SDS011;10914;48.886;9.394;2023-10-31T10:40:29;21.17;;;20.00;;
21505;SDS011;10914;48.886;9.394;2023-10-31T10:42:55;21.43;;;20.30;;
21505;SDS011;10914;48.886;9.394;2023-10-31T10:45:24;22.90;;;21.70;;
21505;SDS011;10914;48.886;9.394;2023-10-31T10:47:50;21.52;;;20.35;;
21505;SDS011;10914;48.886;9.394;2023-10-31T10:50:18;21.45;;;20.42;;
21505;SDS011;10914;48.886;9.394;2023-10-31T10:52:48;24.05;;;22.63;;
21505;SDS011;10914;48.886;9.394;2023-10-31T10:55:19;22.92;;;21.58;;
21505;SDS011;10914;48.886;9.394;2023-10-31T10:58:08;22.38;;;20.77;;
21505;SDS011;10914;48.886;9.394;2023-10-31T11:00:34;22.67;;;21.17;;
21505;SDS011;10914;48.886;9.394;2023-10-31T11:02:59;24.08;;;22.48;;
21505;SDS011;10914;48.886;9.394;2023-10-31T11:05:26;23.65;;;22.27;;
21505;SDS011;10914;48.886;9.394;2023-10-31T11:07:51;23.58;;;22.13;;
21505;SDS011;10914;48.886;9.394;2023-10-31T11:10:17;22.15;;;21.05;;
21505;SDS011;10914;48.886;9.394;2023-10-31T11:12:42;23.15;;;21.70;;
21505;SDS011;10914;48.886;9.394;2023-10-31T11:15:08;23.65;;;22.00;;
21505;SDS011;10914;48.886;9.394;2023-10-31T11:17:35;25.15;;;23.63;;
21505;SDS011;10914;48.886;9.394;2023-10-31T11:20:01;26.27;;;24.75;;
21505;SDS011;10914;48.886;9.394;2023-10-31T11:22:36;25.70;;;24.27;;
21505;SDS011;10914;48.886;9.394;2023-10-31T11:25:01;24.08;;;22.67;;
21505;SDS011;10914;48.886;9.394;2023-10-31T11:27:27;26.90;;;25.25;;
21505;SDS011;10914;48.886;9.394;2023-10-31T11:29:52;27.13;;;25.73;;
21505;SDS011;10914;48.886;9.394;2023-10-31T11:32:19;27.23;;;25.83;;
21505;SDS011;10914;48.886;9.394;2023-10-31T11:34:46;28.70;;;27.02;;
21505;SDS011;10914;48.886;9.394;2023-10-31T11:42:36;31.50;;;29.60;;
21505;SDS011;10914;48.886;9.394;2023-10-31T11:45:01;27.77;;;26.23;;
21505;SDS011;10914;48.886;9.394;2023-10-31T11:47:26;27.13;;;25.67;;
21505;SDS011;10914;48.886;9.394;2023-10-31T11:49:51;25.57;;;24.27;;
21505;SDS011;10914;48.886;9.394;2023-10-31T11:52:17;26.95;;;25.45;;
21505;SDS011;10914;48.886;9.394;2023-10-31T11:54:43;27.73;;;26.23;;
21505;SDS011;10914;48.886;9.394;2023-10-31T11:57:08;26.33;;;24.85;;
21505;SDS011;10914;48.886;9.394;2023-10-31T11:59:37;28.40;;;26.52;;
21505;SDS011;10914;48.886;9.394;2023-10-31T12:02:12;27.45;;;25.80;;
21505;SDS011;10914;48.886;9.394;2023-10-31T12:04:37;25.55;;;24.20;;
21505;SDS011;10914;48.886;9.394;2023-10-31T12:07:02;28.53;;;26.43;;
21505;SDS011;10914;48.886;9.394;2023-10-31T12:09:28;28.05;;;26.25;;
21505;SDS011;10914;48.886;9.394;2023-10-31T12:11:54;26.70;;;24.97;;
21505;SDS011;10914;48.886;9.394;2023-10-31T12:14:19;26.40;;;24.60;;
21505;SDS011;10914;48.886;9.394;2023-10-31T12:16:45;25.55;;;23.85;;
21505;SDS011;10914;48.886;9.394;2023-10-31T12:19:11;25.60;;;23.77;;
21505;SDS011;10914;48.886;9.394;2023-10-31T12:21:40;24.00;;;22.50;;
21505;SDS011;10914;48.886;9.394;2023-10-31T12:24:07;26.75;;;24.90;;
21505;SDS011;10914;48.886;9.394;2023-10-31T12:26:33;25.00;;;23.30;;
21505;SDS011;10914;48.886;9.394;2023-10-31T12:31:43;24.35;;;22.77;;
21505;SDS011;10914;48.886;9.394;2023-10-31T12:34:08;22.90;;;21.75;;
21505;SDS011;10914;48.886;9.394;2023-10-31T12:36:34;25.98;;;24.27;;
21505;SDS011;10914;48.886;9.394;2023-10-31T12:39:00;23.63;;;22.23;;
21505;SDS011;10914;48.886;9.394;2023-10-31T12:41:26;24.52;;;23.13;;
21505;SDS011;10914;48.886;9.394;2023-10-31T12:43:51;26.55;;;25.00;;
21505;SDS011;10914;48.886;9.394;2023-10-31T12:46:32;25.85;;;24.55;;
21505;SDS011;10914;48.886;9.394;2023-10-31T12:48:58;26.40;;;25.00;;
21505;SDS011;10914;48.886;9.394;2023-10-31T12:51:23;25.80;;;24.40;;
21505;SDS011;10914;48.886;9.394;2023-10-31T12:53:51;25.35;;;23.95;;
21505;SDS011;10914;48.886;9.394;2023-10-31T12:59:03;24.02;;;22.77;;
21505;SDS011;10914;48.886;9.394;2023-10-31T13:01:29;23.85;;;22.45;;
21505;SDS011;10914;48.886;9.394;2023-10-31T13:03:54;23.10;;;21.80;;
21505;SDS011;10914;48.886;9.394;2023-10-31T13:06:19;21.43;;;20.43;;
21505;SDS011;10914;48.886;9.394;2023-10-31T13:08:48;22.67;;;21.57;;
21505;SDS011;10914;48.886;9.394;2023-10-31T13:11:16;22.38;;;21.05;;
21505;SDS011;10914;48.886;9.394;2023-10-31T13:13:41;21.80;;;20.58;;
21505;SDS011;10914;48.886;9.394;2023-10-31T13:16:06;22.30;;;21.15;;
21505;SDS011;10914;48.886;9.394;2023-10-31T13:18:31;22.85;;;21.48;;
21505;SDS011;10914;48.886;9.394;2023-10-31T13:20:57;22.48;;;20.90;;
21505;SDS011;10914;48.886;9.394;2023-10-31T13:23:22;22.05;;;20.85;;
21505;SDS011;10914;48.886;9.394;2023-10-31T13:25:47;25.98;;;24.48;;
21505;SDS011;10914;48.886;9.394;2023-10-31T13:28:13;25.52;;;23.88;;
21505;SDS011;10914;48.886;9.394;2023-10-31T13:30:39;24.60;;;23.10;;
21505;SDS011;10914;48.886;9.394;2023-10-31T13:33:05;25.50;;;23.98;;
21505;SDS011;10914;48.886;9.394;2023-10-31T13:35:31;24.38;;;22.77;;
21505;SDS011;10914;48.886;9.394;2023-10-31T13:37:57;24.85;;;23.17;;
21505;SDS011;10914;48.886;9.394;2023-10-31T13:40:22;24.73;;;23.08;;
21505;SDS011;10914;48.886;9.394;2023-10-31T13:42:48;24.10;;;22.65;;
21505;SDS011;10914;48.886;9.394;2023-10-31T13:45:13;25.50;;;23.65;;
21505;SDS011;10914;48.886;9.394;2023-10-31T13:47:38;24.77;;;23.07;;
21505;SDS011;10914;48.886;9.394;2023-10-31T13:50:03;24.25;;;22.73;;
21505;SDS011;10914;48.886;9.394;2023-10-31T13:52:32;26.38;;;24.85;;
21505;SDS011;10914;48.886;9.394;2023-10-31T13:55:01;26.38;;;24.67;;
21505;SDS011;10914;48.886;9.394;2023-10-31T13:57:26;26.38;;;24.83;;
21505;SDS011;10914;48.886;9.394;2023-10-31T13:59:51;26.53;;;25.07;;
21505;SDS011;10914;48.886;9.394;2023-10-31T14:02:17;24.40;;;22.83;;
21505;SDS011;10914;48.886;9.394;2023-10-31T14:04:42;23.70;;;22.33;;
21505;SDS011;10914;48.886;9.394;2023-10-31T14:07:07;23.52;;;22.13;;
21505;SDS011;10914;48.886;9.394;2023-10-31T14:09:32;23.77;;;22.48;;
21505;SDS011;10914;48.886;9.394;2023-10-31T14:11:58;23.98;;;22.58;;
21505;SDS011;10914;48.886;9.394;2023-10-31T14:14:23;24.08;;;22.67;;
21505;SDS011;10914;48.886;9.394;2023-10-31T14:16:49;23.33;;;21.88;;
21505;SDS011;10914;48.886;9.394;2023-10-31T14:19:14;24.02;;;22.45;;
21505;SDS011;10914;48.886;9.394;2023-10-31T14:21:41;23.70;;;22.30;;